Caruth, Missouri
Current Conditions -  °F | °C
As of 9:53 PM on Saturday 25 Oct 2014 (Local Time) from KHKA Reporting Station
Clear Clear  
Wind Chill: 68°   Ceiling: Unl
Heat Index: 68°   Visibility: 10mi
Dew Point: 64°   Wind: 5mph
Humidity: 87%   Direction: 190°S
Pressure: 30.03"   Gusts: NA
Location:  36.2279°N, 90.0425°W
Report Text: KHKA 260253Z AUTO 19004KT 10SM CLR 20/18 A3003 RMK AO2 SLP166 T02000178 51004
Loading
Personal Weather Stations






























Interactive Weather Map
Tropical Storm Tracking
New forecast layout! Learn more

10-Day Weather Forecast

Advertisements
Track Severe Weather on mobile